Terminal Aerodrome Forecast
Issued by NWS Grand Forks, ND

Home | Current Version | Previous Version | Graphics & Text | Print | Product List | Glossary On
Versions: 1 2 3 4 5 6 7 8 9 10 11 12 13 14 15 16 17 18 19 20 21 22 23 24 25
000
FTUS43 KFGF 222333
TAFGFK
TAF
KGFK 222333Z 2300/2324 01015G22KT P6SM BKN015 OVC025
     FM230600 01012KT 5SM -RASN OVC012
     FM230800 01010KT 3SM -SN OVC012
     FM231400 04012KT 4SM -SN BKN015 OVC020
     FM231900 06013KT P6SM OVC025=

USA.gov is the U.S. government's official web portal to all federal, state and local government web resources and services.